createdAt,value
2018-09-30T00:01:35.450Z,62.71
2018-09-30T00:04:03.961Z,62.09
2018-09-30T00:06:32.575Z,62.96
2018-09-30T00:09:01.096Z,63.44
2018-09-30T00:11:29.857Z,64.50
2018-09-30T00:13:58.365Z,64.44
2018-09-30T00:16:26.903Z,63.70
2018-09-30T00:18:55.504Z,63.34
2018-09-30T00:21:24.185Z,62.83
2018-09-30T00:23:58.056Z,62.87
2018-09-30T00:26:31.816Z,63.42
2018-09-30T00:29:00.408Z,63.20
2018-09-30T00:31:28.994Z,64.73
2018-09-30T00:34:02.699Z,67.25
2018-09-30T00:36:31.220Z,66.13
2018-09-30T00:38:59.772Z,64.63
2018-09-30T00:41:28.338Z,64.59
2018-09-30T00:43:56.829Z,63.68
2018-09-30T00:46:25.420Z,64.58
2018-09-30T00:48:54.028Z,64.66
2018-09-30T00:51:22.558Z,63.96
2018-09-30T00:53:51.118Z,63.46
2018-09-30T00:56:20.720Z,63.78
2018-09-30T00:58:49.324Z,63.63
2018-09-30T01:01:17.957Z,63.23
2018-09-30T01:03:46.509Z,63.99
2018-09-30T01:06:15.064Z,64.51
2018-09-30T01:08:43.613Z,65.95
2018-09-30T01:11:12.197Z,66.62
2018-09-30T01:13:40.744Z,65.38
2018-09-30T01:16:09.643Z,64.77
2018-09-30T01:18:38.259Z,64.63
2018-09-30T01:21:07.420Z,64.27
2018-09-30T01:23:36.194Z,64.37
2018-09-30T01:26:04.997Z,64.35
2018-09-30T01:28:33.990Z,64.11
2018-09-30T01:31:02.493Z,63.72
2018-09-30T01:33:31.042Z,63.46
2018-09-30T01:35:59.619Z,63.30
2018-09-30T01:38:28.136Z,63.50
2018-09-30T01:40:56.741Z,64.02
2018-09-30T01:43:25.345Z,64.81
2018-09-30T01:45:53.884Z,69.74
2018-09-30T01:48:22.512Z,67.00
2018-09-30T01:50:51.049Z,65.08
2018-09-30T01:53:19.613Z,64.71
2018-09-30T01:55:48.201Z,64.27
2018-09-30T01:58:16.769Z,64.61
2018-09-30T02:00:45.334Z,65.93
2018-09-30T02:03:13.914Z,64.74
2018-09-30T02:05:42.449Z,64.19
2018-09-30T02:08:11.185Z,63.89
2018-09-30T02:10:39.750Z,62.71
2018-09-30T02:13:08.296Z,62.97
2018-09-30T02:15:36.865Z,62.96
2018-09-30T02:18:05.478Z,63.99
2018-09-30T02:20:34.038Z,66.72
2018-09-30T02:23:02.640Z,67.83
2018-09-30T02:25:31.373Z,66.09
2018-09-30T02:27:59.929Z,65.23
2018-09-30T02:30:28.453Z,64.12
2018-09-30T02:32:56.994Z,65.15
2018-09-30T02:35:25.561Z,64.96
2018-09-30T02:37:54.110Z,64.05
2018-09-30T02:40:22.658Z,63.37
2018-09-30T02:42:51.244Z,63.77
2018-09-30T02:45:19.845Z,63.44
2018-09-30T02:47:48.579Z,63.25
2018-09-30T02:50:17.239Z,62.83
2018-09-30T02:52:45.730Z,63.71
2018-09-30T02:55:14.303Z,65.25
2018-09-30T02:57:42.851Z,67.58
2018-09-30T03:00:11.834Z,65.57
2018-09-30T03:02:40.375Z,64.84
2018-09-30T03:05:09.088Z,63.45
2018-09-30T03:07:42.869Z,63.93
2018-09-30T03:10:11.515Z,64.91
2018-09-30T03:12:41.210Z,65.08
2018-09-30T03:15:10.014Z,64.66
2018-09-30T03:17:38.618Z,64.99
2018-09-30T03:20:07.409Z,65.02
2018-09-30T03:22:35.968Z,64.22
2018-09-30T03:25:05.392Z,64.50
2018-09-30T03:27:34.043Z,64.51
2018-09-30T03:30:02.954Z,64.50
2018-09-30T03:32:32.319Z,66.63
2018-09-30T03:35:00.985Z,66.88
2018-09-30T03:37:29.669Z,65.32
2018-09-30T03:39:58.303Z,62.52
2018-09-30T03:42:26.903Z,64.19
2018-09-30T03:44:56.102Z,65.13
2018-09-30T03:47:24.809Z,66.35
2018-09-30T03:49:53.479Z,65.97
2018-09-30T03:52:23.468Z,64.72
2018-09-30T03:54:52.534Z,64.55
2018-09-30T03:57:21.502Z,64.21
2018-09-30T03:59:50.105Z,63.25
2018-09-30T04:02:19.507Z,63.09
2018-09-30T04:04:48.101Z,64.27
2018-09-30T04:07:16.782Z,65.07
2018-09-30T04:09:45.402Z,66.41
2018-09-30T04:12:14.030Z,64.95
2018-09-30T04:14:42.572Z,65.06
2018-09-30T04:17:11.254Z,64.48
2018-09-30T04:19:40.040Z,64.39
2018-09-30T04:22:08.613Z,64.57
2018-09-30T04:24:37.165Z,63.97
2018-09-30T04:27:05.828Z,64.64
2018-09-30T04:29:34.425Z,65.02
2018-09-30T04:32:03.012Z,64.86
2018-09-30T04:34:31.642Z,64.92
2018-09-30T04:37:00.194Z,64.16
2018-09-30T04:39:28.810Z,62.77
2018-09-30T04:41:57.627Z,64.36
2018-09-30T04:44:26.212Z,71.26
2018-09-30T04:46:54.890Z,66.40
2018-09-30T04:49:24.074Z,63.12
2018-09-30T04:51:52.692Z,63.57
2018-09-30T04:54:22.592Z,65.17
2018-09-30T04:56:52.007Z,66.34
2018-09-30T04:59:20.950Z,66.79
2018-09-30T05:01:49.646Z,66.71
2018-09-30T05:04:18.287Z,66.42
2018-09-30T05:06:46.893Z,66.54
2018-09-30T05:09:16.273Z,65.45
2018-09-30T05:11:46.198Z,64.84
2018-09-30T05:14:14.973Z,64.10
2018-09-30T05:16:43.583Z,64.06
2018-09-30T05:19:13.085Z,66.50
2018-09-30T05:21:41.809Z,66.90
2018-09-30T05:24:10.403Z,64.75
2018-09-30T05:26:39.423Z,63.54
2018-09-30T05:29:08.513Z,64.58
2018-09-30T05:31:37.148Z,65.98
2018-09-30T05:34:06.522Z,65.65
2018-09-30T05:36:35.177Z,65.34
2018-09-30T05:39:04.946Z,65.08
2018-09-30T05:41:33.520Z,65.22
2018-09-30T05:44:02.113Z,64.71
2018-09-30T05:46:30.815Z,65.43
2018-09-30T05:48:59.514Z,65.14
2018-09-30T05:51:28.040Z,65.84
2018-09-30T05:53:57.505Z,65.92
2018-09-30T05:56:26.491Z,71.14
2018-09-30T05:58:56.010Z,66.39
2018-09-30T06:01:25.420Z,65.27
2018-09-30T06:03:54.081Z,64.47
2018-09-30T06:06:22.680Z,65.84
2018-09-30T06:08:52.060Z,66.86
2018-09-30T06:11:20.672Z,66.25
2018-09-30T06:13:50.349Z,65.41
2018-09-30T06:16:18.874Z,64.57
2018-09-30T06:18:47.554Z,64.25
2018-09-30T06:21:16.820Z,63.95
2018-09-30T06:23:45.472Z,63.35
2018-09-30T06:26:14.054Z,63.46
2018-09-30T06:28:42.621Z,65.79
2018-09-30T06:31:11.927Z,68.70
2018-09-30T06:33:41.191Z,67.32
2018-09-30T06:36:09.745Z,64.22
2018-09-30T06:38:38.411Z,64.05
2018-09-30T06:41:07.115Z,65.36
2018-09-30T06:43:35.696Z,66.83
2018-09-30T06:46:04.228Z,66.64
2018-09-30T06:48:32.771Z,66.02
2018-09-30T06:51:01.486Z,65.86
2018-09-30T06:53:30.224Z,64.71
2018-09-30T06:55:59.607Z,64.84
2018-09-30T06:58:28.378Z,65.15
2018-09-30T07:00:57.257Z,65.59
2018-09-30T07:03:25.872Z,64.67
2018-09-30T07:05:55.097Z,62.93
2018-09-30T07:08:23.831Z,64.41
2018-09-30T07:10:52.562Z,63.47
2018-09-30T07:13:21.248Z,62.10
2018-09-30T07:15:50.174Z,62.92
2018-09-30T07:18:18.728Z,62.28
2018-09-30T07:20:47.358Z,62.66
2018-09-30T07:23:16.199Z,63.41
2018-09-30T07:25:45.343Z,62.36
2018-09-30T07:28:20.007Z,60.33
2018-09-30T07:30:48.843Z,59.40
2018-09-30T07:33:17.972Z,57.52
2018-09-30T07:35:46.537Z,55.14
2018-09-30T07:38:15.155Z,53.06
2018-09-30T07:40:43.643Z,54.04
2018-09-30T07:43:12.337Z,57.34
2018-09-30T07:45:41.003Z,53.82
2018-09-30T07:48:09.593Z,51.35
2018-09-30T07:50:38.423Z,53.24
2018-09-30T07:53:07.052Z,53.85
2018-09-30T07:55:35.814Z,53.92
2018-09-30T07:58:04.367Z,53.72
2018-09-30T08:00:33.055Z,54.28
2018-09-30T08:03:01.713Z,52.82
2018-09-30T08:05:30.299Z,53.68
2018-09-30T08:07:58.969Z,52.43
2018-09-30T08:10:27.675Z,52.20
2018-09-30T08:12:56.298Z,52.68
2018-09-30T08:15:24.975Z,52.41
2018-09-30T08:17:53.622Z,53.01
2018-09-30T08:20:22.604Z,52.68
2018-09-30T08:22:51.201Z,51.65
2018-09-30T08:25:19.866Z,51.46
2018-09-30T08:27:49.198Z,51.54
2018-09-30T08:30:17.891Z,50.75
2018-09-30T08:32:46.590Z,51.20
2018-09-30T08:35:15.189Z,49.74
2018-09-30T08:42:27.799Z,48.94
2018-09-30T08:44:56.449Z,48.22
2018-09-30T08:50:37.987Z,46.21
2018-09-30T08:53:06.844Z,46.86
2018-09-30T08:55:35.651Z,46.28
2018-09-30T08:58:04.568Z,47.73
2018-09-30T09:00:33.252Z,46.90
2018-09-30T09:03:01.995Z,46.75
2018-09-30T09:05:31.961Z,47.26
2018-09-30T09:08:01.958Z,46.80
2018-09-30T09:10:31.407Z,46.04
2018-09-30T09:13:00.048Z,45.33
2018-09-30T09:15:29.092Z,46.62
2018-09-30T09:17:57.825Z,45.94
2018-09-30T09:20:27.188Z,46.26
2018-09-30T09:22:56.608Z,45.05
2018-09-30T09:25:25.412Z,45.07
2018-09-30T09:27:53.959Z,44.76
2018-09-30T09:30:22.807Z,42.58
2018-09-30T09:32:51.576Z,43.40
2018-09-30T09:35:20.260Z,43.43
2018-09-30T09:37:48.957Z,43.58
2018-09-30T09:40:17.709Z,43.25
2018-09-30T09:42:46.418Z,42.12
2018-09-30T09:45:15.898Z,48.78
2018-09-30T09:47:44.609Z,43.22
2018-09-30T09:50:13.262Z,42.73
2018-09-30T09:52:43.143Z,42.30
2018-09-30T09:55:11.768Z,42.13
2018-09-30T09:57:40.495Z,42.78
2018-09-30T10:00:10.314Z,42.10
2018-09-30T10:02:40.183Z,42.15
2018-09-30T10:05:09.092Z,42.56
2018-09-30T10:07:37.700Z,43.15
2018-09-30T10:10:06.467Z,43.09
2018-09-30T10:12:35.649Z,41.38
2018-09-30T10:15:04.973Z,42.88
2018-09-30T10:17:33.763Z,41.22
2018-09-30T10:20:02.502Z,40.24
2018-09-30T10:22:31.204Z,40.69
2018-09-30T10:24:59.732Z,41.47
2018-09-30T10:27:28.283Z,40.72
2018-09-30T10:29:57.153Z,40.59
2018-09-30T10:32:26.328Z,38.75
2018-09-30T10:34:55.159Z,40.43
2018-09-30T10:37:23.872Z,39.55
2018-09-30T10:39:53.024Z,38.85
2018-09-30T10:42:21.612Z,38.56
2018-09-30T10:44:51.567Z,38.05
2018-09-30T10:47:20.406Z,39.10
2018-09-30T10:49:49.807Z,39.32
2018-09-30T10:52:18.393Z,38.83
2018-09-30T10:54:47.008Z,38.52
2018-09-30T10:57:15.555Z,38.84
2018-09-30T10:59:45.074Z,38.14
2018-09-30T11:02:13.787Z,39.01
2018-09-30T11:04:43.211Z,38.93
2018-09-30T11:07:11.793Z,37.55
2018-09-30T11:09:40.547Z,36.42
2018-09-30T11:12:09.077Z,37.13
2018-09-30T11:14:37.821Z,34.71
2018-09-30T11:17:06.896Z,33.73
2018-09-30T11:19:35.517Z,34.08
2018-09-30T11:22:04.695Z,35.21
2018-09-30T11:24:33.792Z,35.32
2018-09-30T11:27:02.608Z,34.72
2018-09-30T11:29:31.172Z,34.98
2018-09-30T11:31:59.920Z,34.97
2018-09-30T11:34:28.432Z,34.92
2018-09-30T11:36:57.387Z,34.96
2018-09-30T11:39:26.736Z,34.09
2018-09-30T11:41:55.485Z,34.63
2018-09-30T11:44:24.098Z,34.17
2018-09-30T11:46:53.416Z,33.70
2018-09-30T11:49:22.334Z,34.11
2018-09-30T11:51:51.867Z,34.00
2018-09-30T11:54:20.434Z,34.41
2018-09-30T11:56:49.083Z,33.59
2018-09-30T11:59:17.596Z,34.38
2018-09-30T12:01:46.309Z,34.68
2018-09-30T12:04:14.908Z,34.05
2018-09-30T12:06:43.877Z,34.59
2018-09-30T12:09:12.474Z,33.99
2018-09-30T12:11:42.036Z,34.00
2018-09-30T12:14:10.619Z,34.02
2018-09-30T12:16:39.299Z,34.99
2018-09-30T12:19:08.001Z,34.25
2018-09-30T12:21:37.473Z,35.44
2018-09-30T12:24:06.071Z,36.22
2018-09-30T12:26:34.924Z,33.94
2018-09-30T12:29:03.607Z,34.52
2018-09-30T12:31:32.387Z,34.95
2018-09-30T12:34:01.946Z,33.96
2018-09-30T12:36:30.574Z,34.77
2018-09-30T12:38:59.286Z,35.04
2018-09-30T12:41:28.732Z,33.76
2018-09-30T12:43:57.434Z,34.46
2018-09-30T12:46:25.991Z,35.25
2018-09-30T12:48:54.856Z,34.37
2018-09-30T12:51:23.508Z,34.61
2018-09-30T12:53:52.990Z,34.41
2018-09-30T12:56:21.861Z,34.97
2018-09-30T12:58:50.487Z,33.86
2018-09-30T13:01:19.102Z,34.80
2018-09-30T13:03:47.837Z,34.84
2018-09-30T13:06:17.173Z,35.99
2018-09-30T13:08:45.758Z,35.52
2018-09-30T13:11:14.356Z,35.48
2018-09-30T13:13:43.007Z,34.89
2018-09-30T13:16:11.598Z,34.97
2018-09-30T13:18:40.208Z,34.92
2018-09-30T13:21:08.861Z,34.19
2018-09-30T13:23:37.682Z,34.80
2018-09-30T13:26:06.436Z,35.94
2018-09-30T13:28:34.960Z,35.37
2018-09-30T13:31:03.545Z,35.70
2018-09-30T13:33:32.323Z,36.46
2018-09-30T13:36:00.893Z,34.73
2018-09-30T13:38:29.542Z,35.43
2018-09-30T13:40:58.354Z,34.43
2018-09-30T13:43:27.037Z,35.61
2018-09-30T13:45:55.638Z,36.18
2018-09-30T13:48:24.176Z,35.17
2018-09-30T13:50:52.783Z,35.31
2018-09-30T13:53:21.402Z,34.30
2018-09-30T13:55:50.012Z,35.49
2018-09-30T13:58:19.349Z,35.42
2018-09-30T14:00:48.676Z,35.74
2018-09-30T14:03:17.818Z,35.39
2018-09-30T14:05:46.356Z,36.00
2018-09-30T14:08:15.102Z,35.68
2018-09-30T14:10:45.288Z,35.84
2018-09-30T14:13:14.262Z,35.67
2018-09-30T14:15:43.057Z,35.42
2018-09-30T14:18:11.628Z,35.90
2018-09-30T14:20:40.285Z,36.09
2018-09-30T14:23:09.065Z,35.37
2018-09-30T14:25:37.616Z,35.83
2018-09-30T14:28:07.474Z,36.00
2018-09-30T14:30:37.361Z,35.12
2018-09-30T14:33:06.367Z,36.93
2018-09-30T14:35:35.161Z,35.90
2018-09-30T14:38:03.752Z,35.29
2018-09-30T14:40:32.488Z,36.38
2018-09-30T14:43:01.112Z,35.53
2018-09-30T14:45:30.026Z,36.84
2018-09-30T14:47:59.059Z,36.08
2018-09-30T14:50:27.596Z,34.96
2018-09-30T14:52:56.315Z,35.91
2018-09-30T14:55:25.117Z,35.81
2018-09-30T14:57:53.818Z,35.06
2018-09-30T15:00:22.466Z,35.42
2018-09-30T15:02:51.270Z,35.78
2018-09-30T15:05:20.467Z,36.69
2018-09-30T15:07:49.117Z,35.78
2018-09-30T15:10:17.688Z,36.46
2018-09-30T15:12:46.365Z,35.96
2018-09-30T15:15:15.112Z,36.92
2018-09-30T15:17:44.461Z,36.50
2018-09-30T15:20:13.710Z,36.12
2018-09-30T15:22:42.303Z,36.67
2018-09-30T15:25:11.067Z,36.07
2018-09-30T15:27:39.711Z,36.28
2018-09-30T15:30:09.166Z,36.64
2018-09-30T15:32:37.728Z,36.69
2018-09-30T15:35:06.440Z,37.15
2018-09-30T15:37:35.067Z,38.14
2018-09-30T15:40:04.348Z,38.71
2018-09-30T15:42:33.007Z,39.12
2018-09-30T15:45:01.769Z,38.12
2018-09-30T15:47:30.650Z,38.89
2018-09-30T15:49:59.461Z,38.99
2018-09-30T15:52:28.146Z,39.59
2018-09-30T15:54:57.622Z,39.25
2018-09-30T15:57:26.304Z,38.38
2018-09-30T15:59:54.902Z,38.18
2018-09-30T16:02:23.667Z,38.97
2018-09-30T16:04:52.318Z,42.54
2018-09-30T16:07:21.028Z,38.99
2018-09-30T16:09:50.452Z,39.80
2018-09-30T16:12:19.151Z,39.17
2018-09-30T16:14:47.810Z,39.22
2018-09-30T16:17:16.878Z,40.30
2018-09-30T16:19:45.614Z,40.87
2018-09-30T16:22:14.713Z,39.65
2018-09-30T16:24:44.787Z,39.77
2018-09-30T16:27:13.338Z,40.00
2018-09-30T16:29:41.920Z,40.81
2018-09-30T16:32:11.233Z,40.31
2018-09-30T16:34:39.933Z,40.44
2018-09-30T16:37:08.797Z,39.50
2018-09-30T16:39:38.522Z,39.95
2018-09-30T16:42:07.233Z,40.23
2018-09-30T16:44:35.943Z,40.32
2018-09-30T16:47:04.605Z,40.71
2018-09-30T16:49:33.287Z,40.77
2018-09-30T16:52:01.871Z,42.30
2018-09-30T16:54:30.606Z,41.90
2018-09-30T16:56:59.320Z,41.81
2018-09-30T16:59:28.425Z,41.61
2018-09-30T17:01:57.873Z,42.10
2018-09-30T17:04:26.481Z,42.62
2018-09-30T17:06:55.180Z,45.11
2018-09-30T17:09:24.625Z,45.75
2018-09-30T17:11:53.371Z,45.21
2018-09-30T17:14:22.081Z,45.63
2018-09-30T17:16:50.775Z,45.75
2018-09-30T17:19:20.017Z,46.73
2018-09-30T17:21:48.876Z,46.85
2018-09-30T17:24:17.573Z,48.08
2018-09-30T17:26:46.956Z,48.59
2018-09-30T17:29:15.609Z,49.31
2018-09-30T17:31:44.922Z,49.30
2018-09-30T17:34:14.513Z,48.66
2018-09-30T17:36:43.908Z,49.56
2018-09-30T17:39:13.411Z,49.78
2018-09-30T17:41:42.062Z,48.53
2018-09-30T17:44:11.022Z,49.22
2018-09-30T17:46:39.891Z,49.01
2018-09-30T17:49:08.792Z,49.36
2018-09-30T17:51:38.136Z,50.16
2018-09-30T17:54:07.068Z,50.90
2018-09-30T17:56:35.693Z,51.20
2018-09-30T17:59:04.462Z,51.68
2018-09-30T18:01:33.892Z,52.45
2018-09-30T18:04:03.216Z,54.87
2018-09-30T18:06:32.586Z,52.51
2018-09-30T18:09:01.951Z,50.76
2018-09-30T18:11:31.106Z,51.01
2018-09-30T18:13:59.757Z,50.75
2018-09-30T18:16:28.332Z,51.50
2018-09-30T18:18:57.269Z,51.62
2018-09-30T18:21:25.793Z,51.98
2018-09-30T18:23:54.401Z,52.67
2018-09-30T18:26:23.437Z,52.16
2018-09-30T18:28:52.667Z,52.21
2018-09-30T18:31:21.356Z,51.57
2018-09-30T18:33:50.343Z,52.21
2018-09-30T18:36:19.083Z,52.75
2018-09-30T18:38:47.700Z,53.31
2018-09-30T18:41:17.002Z,53.16
2018-09-30T18:43:46.625Z,53.54
2018-09-30T18:46:15.522Z,56.06
2018-09-30T18:48:45.291Z,52.99
2018-09-30T18:51:15.263Z,53.33
2018-09-30T18:53:45.240Z,53.48
2018-09-30T18:56:15.329Z,53.21
2018-09-30T18:58:45.253Z,54.31
2018-09-30T19:01:15.252Z,53.08
2018-09-30T19:08:38.448Z,51.17
2018-09-30T19:11:07.356Z,52.41
2018-09-30T19:13:36.319Z,50.92
2018-09-30T19:16:05.292Z,50.45
2018-09-30T19:18:34.122Z,51.33
2018-09-30T19:21:03.055Z,51.47
2018-09-30T19:23:31.905Z,51.82
2018-09-30T19:26:00.605Z,51.58
2018-09-30T19:28:29.170Z,52.21
2018-09-30T19:30:57.808Z,51.42
2018-09-30T19:33:27.125Z,51.36
2018-09-30T19:35:55.872Z,51.86
2018-09-30T19:38:24.502Z,51.79
2018-09-30T19:40:53.226Z,51.88
2018-09-30T19:43:21.978Z,52.09
2018-09-30T19:45:50.528Z,52.97
2018-09-30T19:48:19.278Z,56.69
2018-09-30T19:50:47.896Z,53.10
2018-09-30T19:53:17.486Z,52.66
2018-09-30T19:55:46.268Z,51.83
2018-09-30T19:58:15.146Z,51.57
2018-09-30T20:00:43.938Z,54.56
2018-09-30T20:03:12.696Z,53.46
2018-09-30T20:05:41.972Z,53.33
2018-09-30T20:08:10.602Z,53.68
2018-09-30T20:10:40.047Z,52.44
2018-09-30T20:13:09.192Z,53.02
2018-09-30T20:15:37.857Z,53.15
2018-09-30T20:18:06.601Z,53.42
2018-09-30T20:20:35.353Z,53.69
2018-09-30T20:23:04.103Z,54.23
2018-09-30T20:25:32.708Z,54.85
2018-09-30T20:28:02.256Z,54.93
2018-09-30T20:30:31.156Z,55.27
2018-09-30T20:32:59.754Z,54.77
2018-09-30T20:35:28.611Z,55.03
2018-09-30T20:37:57.227Z,55.36
2018-09-30T20:40:26.047Z,55.78
2018-09-30T20:42:54.718Z,56.26
2018-09-30T20:45:23.542Z,57.27
2018-09-30T20:47:52.313Z,56.29
2018-09-30T20:50:21.499Z,56.76
2018-09-30T20:52:50.226Z,56.67
2018-09-30T20:55:19.736Z,56.10
2018-09-30T20:57:48.405Z,56.19
2018-09-30T21:00:17.017Z,55.34
2018-09-30T21:02:45.747Z,55.81
2018-09-30T21:05:30.345Z,55.73
2018-09-30T21:07:59.689Z,56.27
2018-09-30T21:10:28.350Z,56.31
2018-09-30T21:12:57.700Z,56.99
2018-09-30T21:15:26.946Z,57.44
2018-09-30T21:17:56.196Z,57.29
2018-09-30T21:20:24.896Z,55.75
2018-09-30T21:22:53.606Z,56.87
2018-09-30T21:25:22.160Z,56.45
2018-09-30T21:27:50.965Z,55.78
2018-09-30T21:30:20.360Z,55.36
2018-09-30T21:32:49.645Z,55.14
2018-09-30T21:35:18.374Z,56.68
2018-09-30T21:37:47.040Z,56.24
2018-09-30T21:40:17.269Z,56.05
2018-09-30T21:42:46.630Z,56.44
2018-09-30T21:45:15.615Z,57.07
2018-09-30T21:47:44.284Z,57.29
2018-09-30T21:50:12.882Z,57.11
2018-09-30T21:52:47.843Z,58.42
2018-09-30T21:55:16.475Z,57.19
2018-09-30T21:57:46.535Z,57.17
2018-09-30T22:00:19.679Z,57.10
2018-09-30T22:02:49.131Z,56.80
2018-09-30T22:05:17.762Z,57.53
2018-09-30T22:07:46.492Z,58.79
2018-09-30T22:10:16.442Z,56.28
2018-09-30T22:12:45.487Z,55.92
2018-09-30T22:15:14.216Z,56.17
2018-09-30T22:17:42.975Z,56.36
2018-09-30T22:20:11.522Z,56.48
2018-09-30T22:22:40.451Z,57.14
2018-09-30T22:25:09.759Z,57.29
2018-09-30T22:27:38.379Z,58.10
2018-09-30T22:30:07.163Z,57.88
2018-09-30T22:32:36.414Z,58.48
2018-09-30T22:35:05.120Z,58.53
2018-09-30T22:37:33.760Z,58.88
2018-09-30T22:40:02.380Z,58.70
2018-09-30T22:42:31.531Z,59.38
2018-09-30T22:45:00.017Z,59.39
2018-09-30T22:47:28.596Z,60.27
2018-09-30T22:49:58.109Z,58.83
2018-09-30T22:52:26.855Z,57.58
2018-09-30T22:54:55.545Z,57.44
2018-09-30T22:57:25.101Z,58.42
2018-09-30T22:59:54.255Z,58.65
2018-09-30T23:02:22.945Z,58.19
2018-09-30T23:04:51.661Z,58.67
2018-09-30T23:07:20.959Z,58.15
2018-09-30T23:09:50.519Z,60.07
2018-09-30T23:12:19.158Z,58.76
2018-09-30T23:14:47.769Z,58.44
2018-09-30T23:17:16.564Z,59.49
2018-09-30T23:19:45.634Z,60.03
2018-09-30T23:22:15.054Z,58.32
2018-09-30T23:24:43.884Z,58.81
2018-09-30T23:27:12.461Z,58.58
2018-09-30T23:29:41.045Z,58.32
2018-09-30T23:32:09.676Z,60.25
2018-09-30T23:34:38.342Z,61.36
2018-09-30T23:37:07.159Z,58.52
2018-09-30T23:39:35.945Z,57.48
2018-09-30T23:42:04.537Z,57.71
2018-09-30T23:44:33.116Z,60.08
2018-09-30T23:47:01.659Z,58.70
2018-09-30T23:49:30.298Z,58.92
2018-09-30T23:51:59.666Z,59.54
2018-09-30T23:54:28.330Z,59.72
2018-09-30T23:56:57.544Z,58.40
2018-09-30T23:59:26.156Z,58.21
